KGLW/GLW METAR and TAF weather

Enter ICAO airport designator
Station Type Date Time Source
KGLW METAR 2019/08/25 07:15 UTC NOAA

KGLW 250715Z AUTO 05005KT 10SM CLR 18/14 A3004 RMK AO2 T01840135


Station Type Date Time Source
KGLW Decoded METAR 2019/08/25 07:15 UTC NOAA

Station name not available
Aug 25, 2019 - 03:15 AM EDT / 2019.08.25 0715 UTC
Wind: from the NE (050 degrees) at 6 MPH (5 KT):0
Visibility: 10 mile(s):0
Sky conditions: clear
Temperature: 65.1 F (18.4 C)
Dew Point: 56.3 F (13.5 C)
Relative Humidity: 73%
Pressure (altimeter): 30.04 in. Hg (1017 hPa)
ob: KGLW 250715Z AUTO 05005KT 10SM CLR 18/14 A3004 RMK AO2 T01840135
cycle: 7

Station Type Date Time Source
KGLW TAF UTC NOAA

Error!

Example: see airport list